createdAt,value
2018-10-02T00:00:58.221Z,28.22
2018-10-02T00:01:58.250Z,27.73
2018-10-02T00:02:58.247Z,27.36
2018-10-02T00:03:58.226Z,26.78
2018-10-02T00:04:58.264Z,26.59
2018-10-02T00:05:58.281Z,25.64
2018-10-02T00:06:58.234Z,24.12
2018-10-02T00:07:58.311Z,22.22
2018-10-02T00:08:58.250Z,20.99
2018-10-02T00:09:58.244Z,19.76
2018-10-02T00:10:58.226Z,19.76
2018-10-02T00:11:58.224Z,19.85
2018-10-02T00:12:58.235Z,20.51
2018-10-02T00:13:58.245Z,21.18
2018-10-02T00:14:58.231Z,20.61
2018-10-02T00:15:58.220Z,20.89
2018-10-02T00:16:58.218Z,20.89
2018-10-02T00:17:58.224Z,20.99
2018-10-02T00:18:58.227Z,20.89
2018-10-02T00:19:58.217Z,21.08
2018-10-02T00:20:58.256Z,19.95
2018-10-02T00:21:58.243Z,19.66
2018-10-02T00:22:58.243Z,19.66
2018-10-02T00:23:58.231Z,19.09
2018-10-02T00:24:58.217Z,17.38
2018-10-02T00:25:58.254Z,16.52
2018-10-02T00:26:58.226Z,17.29
2018-10-02T00:27:58.208Z,17.76
2018-10-02T00:28:58.265Z,18.04
2018-10-02T00:29:58.240Z,18.14
2018-10-02T00:30:58.214Z,17.66
2018-10-02T00:31:58.377Z,16.43
2018-10-02T00:32:58.220Z,15.67
2018-10-02T00:33:58.242Z,15.29
2018-10-02T00:34:58.228Z,15.39
2018-10-02T00:35:58.240Z,15.10
2018-10-02T00:36:58.256Z,14.72
2018-10-02T00:37:58.243Z,15.10
2018-10-02T00:38:58.227Z,14.81
2018-10-02T00:39:58.211Z,14.62
2018-10-02T00:40:58.236Z,14.43
2018-10-02T00:41:58.216Z,14.06
2018-10-02T00:42:58.211Z,14.06
2018-10-02T00:43:58.214Z,14.53
2018-10-02T00:44:58.239Z,14.34
2018-10-02T00:45:58.205Z,14.62
2018-10-02T00:46:58.259Z,14.43
2018-10-02T00:47:58.204Z,14.81
2018-10-02T00:48:58.235Z,14.72
2018-10-02T00:49:58.206Z,14.62
2018-10-02T00:50:58.228Z,14.15
2018-10-02T00:51:58.225Z,13.58
2018-10-02T00:52:58.227Z,13.20
2018-10-02T00:53:58.240Z,12.92
2018-10-02T00:54:58.244Z,12.54
2018-10-02T00:55:58.221Z,11.96
2018-10-02T00:56:58.207Z,11.77
2018-10-02T00:57:58.200Z,11.49
2018-10-02T00:58:58.206Z,11.02
2018-10-02T00:59:58.195Z,10.92
2018-10-02T01:00:58.205Z,10.35
2018-10-02T01:01:58.256Z,10.54
2018-10-02T01:02:58.197Z,9.88
2018-10-02T01:03:58.246Z,9.31
2018-10-02T01:04:58.208Z,9.31
2018-10-02T01:05:58.224Z,8.83
2018-10-02T01:06:58.208Z,8.92
2018-10-02T01:07:58.206Z,9.31
2018-10-02T01:08:58.204Z,8.83
2018-10-02T01:09:58.223Z,8.55
2018-10-02T01:10:58.195Z,9.41
2018-10-02T01:11:58.206Z,9.50
2018-10-02T01:12:58.201Z,9.88
2018-10-02T01:13:58.201Z,10.36
2018-10-02T01:14:58.194Z,10.83
2018-10-02T01:15:58.196Z,11.02
2018-10-02T01:16:58.197Z,10.55
2018-10-02T01:17:58.233Z,11.21
2018-10-02T01:18:58.225Z,11.69
2018-10-02T01:19:58.214Z,11.88
2018-10-02T01:20:58.187Z,13.49
2018-10-02T01:21:58.203Z,13.21
2018-10-02T01:22:58.220Z,13.02
2018-10-02T01:23:58.201Z,13.21
2018-10-02T01:24:58.192Z,14.15
2018-10-02T01:25:58.207Z,14.35
2018-10-02T01:26:58.210Z,14.63
2018-10-02T01:27:58.190Z,14.54
2018-10-02T01:28:58.214Z,15.30
2018-10-02T01:29:58.203Z,15.68
2018-10-02T01:30:58.195Z,16.06
2018-10-02T01:31:58.195Z,16.35
2018-10-02T01:32:58.195Z,16.53
2018-10-02T01:33:58.216Z,16.35
2018-10-02T01:34:58.198Z,16.72
2018-10-02T01:35:58.188Z,17.10
2018-10-02T01:36:58.187Z,17.29
2018-10-02T01:37:58.187Z,17.68
2018-10-02T01:38:58.221Z,18.15
2018-10-02T01:39:58.213Z,19.10
2018-10-02T01:40:58.190Z,19.29
2018-10-02T01:41:58.215Z,19.01
2018-10-02T01:42:58.180Z,19.01
2018-10-02T01:43:58.185Z,19.39
2018-10-02T01:44:58.195Z,19.49
2018-10-02T01:45:58.213Z,19.95
2018-10-02T01:46:58.178Z,19.20
2018-10-02T01:47:58.188Z,19.76
2018-10-02T01:48:58.213Z,19.29
2018-10-02T01:49:58.192Z,19.29
2018-10-02T01:50:58.211Z,19.95
2018-10-02T01:51:58.184Z,20.05
2018-10-02T01:52:58.189Z,19.67
2018-10-02T01:53:58.185Z,19.76
2018-10-02T01:54:58.206Z,19.95
2018-10-02T01:55:58.189Z,19.76
2018-10-02T01:56:58.223Z,19.95
2018-10-02T01:57:58.204Z,19.78
2018-10-02T01:58:58.186Z,19.57
2018-10-02T01:59:58.188Z,19.68
2018-10-02T02:00:58.208Z,19.87
2018-10-02T02:01:58.181Z,20.34
2018-10-02T02:02:58.176Z,21.01
2018-10-02T02:03:58.175Z,21.20
2018-10-02T02:04:58.227Z,22.81
2018-10-02T02:05:58.204Z,22.52
2018-10-02T02:06:58.192Z,22.34
2018-10-02T02:07:58.177Z,22.90
2018-10-02T02:08:58.177Z,22.81
2018-10-02T02:09:58.266Z,22.14
2018-10-02T02:10:58.178Z,22.90
2018-10-02T02:11:58.188Z,22.33
2018-10-02T02:12:58.208Z,21.47
2018-10-02T02:13:58.210Z,21.01
2018-10-02T02:14:58.202Z,21.30
2018-10-02T02:15:58.182Z,21.48
2018-10-02T02:16:58.226Z,20.90
2018-10-02T02:17:58.183Z,21.00
2018-10-02T02:18:58.227Z,20.90
2018-10-02T02:19:58.188Z,21.20
2018-10-02T02:20:58.195Z,21.47
2018-10-02T02:21:58.204Z,22.52
2018-10-02T02:22:58.226Z,22.90
2018-10-02T02:23:58.209Z,22.33
2018-10-02T02:24:58.180Z,22.14
2018-10-02T02:25:58.201Z,21.86
2018-10-02T02:26:58.193Z,21.48
2018-10-02T02:27:58.234Z,22.14
2018-10-02T02:28:58.321Z,23.00
2018-10-02T02:29:58.181Z,23.00
2018-10-02T02:30:58.175Z,23.85
2018-10-02T02:31:58.170Z,23.94
2018-10-02T02:32:58.205Z,23.38
2018-10-02T02:33:58.188Z,24.23
2018-10-02T02:34:58.201Z,24.13
2018-10-02T02:35:58.180Z,23.28
2018-10-02T02:36:58.173Z,24.61
2018-10-02T02:37:58.178Z,24.80
2018-10-02T02:38:58.179Z,25.09
2018-10-02T02:39:58.185Z,23.85
2018-10-02T02:40:58.205Z,22.52
2018-10-02T02:41:58.187Z,24.04
2018-10-02T02:42:58.195Z,23.00
2018-10-02T02:43:58.181Z,23.19
2018-10-02T02:44:58.188Z,22.52
2018-10-02T02:45:58.186Z,22.90
2018-10-02T02:46:58.181Z,22.80
2018-10-02T02:47:58.220Z,23.00
2018-10-02T02:48:58.222Z,22.90
2018-10-02T02:49:58.179Z,22.80
2018-10-02T02:50:58.191Z,22.80
2018-10-02T02:51:58.194Z,22.61
2018-10-02T02:52:58.255Z,21.47
2018-10-02T02:53:58.192Z,21.39
2018-10-02T02:54:58.176Z,20.43
2018-10-02T02:55:58.225Z,21.38
2018-10-02T02:56:58.178Z,21.00
2018-10-02T02:57:58.164Z,21.19
2018-10-02T02:58:58.188Z,21.19
2018-10-02T02:59:58.173Z,19.67
2018-10-02T03:00:58.191Z,19.76
2018-10-02T03:01:58.198Z,21.30
2018-10-02T03:02:58.164Z,21.11
2018-10-02T03:03:58.170Z,21.96
2018-10-02T03:04:58.191Z,22.06
2018-10-02T03:05:58.162Z,23.00
2018-10-02T03:06:58.167Z,23.29
2018-10-02T03:07:58.171Z,22.81
2018-10-02T03:08:58.183Z,22.81
2018-10-02T03:09:58.191Z,22.53
2018-10-02T03:10:58.210Z,20.63
2018-10-02T03:11:58.181Z,20.82
2018-10-02T03:12:58.195Z,20.53
2018-10-02T03:13:58.182Z,21.39
2018-10-02T03:14:58.172Z,22.34
2018-10-02T03:15:58.176Z,22.81
2018-10-02T03:16:58.243Z,23.10
2018-10-02T03:17:58.177Z,23.58
2018-10-02T03:18:58.170Z,24.15
2018-10-02T03:19:58.181Z,24.43
2018-10-02T03:20:58.173Z,24.05
2018-10-02T03:21:58.218Z,23.86
2018-10-02T03:22:58.177Z,24.34
2018-10-02T03:23:58.184Z,24.81
2018-10-02T03:24:58.193Z,24.91
2018-10-02T03:25:58.158Z,25.76
2018-10-02T03:26:58.172Z,26.14
2018-10-02T03:27:58.198Z,25.67
2018-10-02T03:28:58.188Z,25.01
2018-10-02T03:29:58.167Z,25.57
2018-10-02T03:30:58.193Z,25.57
2018-10-02T03:31:58.184Z,26.81
2018-10-02T03:32:58.183Z,25.86
2018-10-02T03:33:58.175Z,26.43
2018-10-02T03:34:58.163Z,25.48
2018-10-02T03:35:58.168Z,26.34
2018-10-02T03:36:58.174Z,25.20
2018-10-02T03:37:58.238Z,25.38
2018-10-02T03:38:58.217Z,25.95
2018-10-02T03:39:58.222Z,27.38
2018-10-02T03:40:58.190Z,27.95
2018-10-02T03:41:58.180Z,27.95
2018-10-02T03:42:58.161Z,28.33
2018-10-02T03:43:58.190Z,28.23
2018-10-02T03:44:58.164Z,28.14
2018-10-02T03:45:58.172Z,27.76
2018-10-02T03:46:58.157Z,27.48
2018-10-02T03:47:58.160Z,26.72
2018-10-02T03:48:58.288Z,26.72
2018-10-02T03:49:58.177Z,27.00
2018-10-02T03:50:58.196Z,26.72
2018-10-02T03:51:58.164Z,27.67
2018-10-02T03:52:58.196Z,28.42
2018-10-02T03:53:58.169Z,27.76
2018-10-02T03:54:58.169Z,27.95
2018-10-02T03:55:58.164Z,28.90
2018-10-02T03:56:58.192Z,30.62
2018-10-02T03:57:58.164Z,30.80
2018-10-02T03:58:58.157Z,30.23
2018-10-02T03:59:58.180Z,29.95
2018-10-02T04:00:58.183Z,30.04
2018-10-02T04:01:58.193Z,30.04
2018-10-02T04:02:58.184Z,30.99
2018-10-02T04:03:58.166Z,31.20
2018-10-02T04:04:58.240Z,31.18
2018-10-02T04:05:58.209Z,31.28
2018-10-02T04:06:58.174Z,30.90
2018-10-02T04:07:58.155Z,30.33
2018-10-02T04:08:58.161Z,30.43
2018-10-02T04:09:58.158Z,30.34
2018-10-02T04:10:58.169Z,29.09
2018-10-02T04:11:58.190Z,28.52
2018-10-02T04:12:58.176Z,29.95
2018-10-02T04:13:58.163Z,28.42
2018-10-02T04:14:58.181Z,28.71
2018-10-02T04:15:58.163Z,29.85
2018-10-02T04:16:58.186Z,29.85
2018-10-02T04:17:58.174Z,29.30
2018-10-02T04:18:58.188Z,29.11
2018-10-02T04:19:58.158Z,30.34
2018-10-02T04:20:58.161Z,31.01
2018-10-02T04:21:58.161Z,31.10
2018-10-02T04:22:58.173Z,31.20
2018-10-02T04:23:58.191Z,31.29
2018-10-02T04:24:58.163Z,31.29
2018-10-02T04:25:58.177Z,32.06
2018-10-02T04:26:58.174Z,31.87
2018-10-02T04:27:58.239Z,31.87
2018-10-02T04:28:58.161Z,32.43
2018-10-02T04:29:58.185Z,33.01
2018-10-02T04:30:58.167Z,33.58
2018-10-02T04:31:58.157Z,33.20
2018-10-02T04:32:58.153Z,34.15
2018-10-02T04:33:58.225Z,33.96
2018-10-02T04:34:58.168Z,33.77
2018-10-02T04:35:58.158Z,33.67
2018-10-02T04:36:58.189Z,34.44
2018-10-02T04:37:58.164Z,34.81
2018-10-02T04:38:58.156Z,34.91
2018-10-02T04:39:58.171Z,36.05
2018-10-02T04:40:58.150Z,35.86
2018-10-02T04:41:58.167Z,35.38
2018-10-02T04:42:58.174Z,35.67
2018-10-02T04:43:58.171Z,35.86
2018-10-02T04:44:58.162Z,36.62
2018-10-02T04:45:58.183Z,37.57
2018-10-02T04:46:58.168Z,38.14
2018-10-02T04:47:58.173Z,38.34
2018-10-02T04:48:58.164Z,38.34
2018-10-02T04:49:58.205Z,38.62
2018-10-02T04:50:58.156Z,39.67
2018-10-02T04:51:58.177Z,39.28
2018-10-02T04:52:58.171Z,39.48
2018-10-02T04:53:58.169Z,39.38
2018-10-02T04:54:58.185Z,38.34
2018-10-02T04:55:58.277Z,40.62
2018-10-02T04:56:58.154Z,41.66
2018-10-02T04:57:58.158Z,42.71
2018-10-02T04:58:58.193Z,41.28
2018-10-02T04:59:58.162Z,39.48
2018-10-02T05:00:58.182Z,39.48
2018-10-02T05:01:58.189Z,39.38
2018-10-02T05:02:58.179Z,37.95
2018-10-02T05:03:58.197Z,38.05
2018-10-02T05:04:58.154Z,35.19
2018-10-02T05:05:58.162Z,32.72
2018-10-02T05:06:58.150Z,31.20
2018-10-02T05:07:58.156Z,31.10
2018-10-02T05:08:58.196Z,30.06
2018-10-02T05:09:58.177Z,29.96
2018-10-02T05:10:58.190Z,27.58
2018-10-02T05:11:58.166Z,26.73
2018-10-02T05:12:58.152Z,25.59
2018-10-02T05:13:58.166Z,24.73
2018-10-02T05:14:58.158Z,24.35
2018-10-02T05:15:58.173Z,24.92
2018-10-02T05:16:58.179Z,24.54
2018-10-02T05:17:58.155Z,24.35
2018-10-02T05:18:58.154Z,24.07
2018-10-02T05:19:58.158Z,22.64
2018-10-02T05:20:58.184Z,21.40
2018-10-02T05:21:58.160Z,20.07
2018-10-02T05:22:58.153Z,19.59
2018-10-02T05:23:58.174Z,19.31
2018-10-02T05:24:58.152Z,17.97
2018-10-02T05:25:58.179Z,17.12
2018-10-02T05:26:58.170Z,17.12
2018-10-02T05:27:58.158Z,16.17
2018-10-02T05:28:58.183Z,16.74
2018-10-02T05:29:58.150Z,17.31
2018-10-02T05:30:58.159Z,17.02
2018-10-02T05:31:58.192Z,16.74
2018-10-02T05:32:58.154Z,16.64
2018-10-02T05:33:58.204Z,16.08
2018-10-02T05:34:58.218Z,16.74
2018-10-02T05:35:58.184Z,17.50
2018-10-02T05:36:58.170Z,17.22
2018-10-02T05:37:58.158Z,15.50
2018-10-02T05:38:58.175Z,15.03
2018-10-02T05:39:58.173Z,13.98
2018-10-02T05:40:58.224Z,14.46
2018-10-02T05:41:58.164Z,12.74
2018-10-02T05:42:58.172Z,12.18
2018-10-02T05:43:58.162Z,11.98
2018-10-02T05:44:58.216Z,12.46
2018-10-02T05:45:58.172Z,12.18
2018-10-02T05:46:58.191Z,11.41
2018-10-02T05:47:58.151Z,10.46
2018-10-02T05:48:58.239Z,9.80
2018-10-02T05:49:58.164Z,9.70
2018-10-02T05:50:58.162Z,9.32
2018-10-02T05:51:58.156Z,9.51
2018-10-02T05:52:58.156Z,8.94
2018-10-02T05:53:58.153Z,8.37
2018-10-02T05:54:58.158Z,7.70
2018-10-02T05:55:58.187Z,7.04
2018-10-02T05:56:58.165Z,6.75
2018-10-02T05:57:58.195Z,6.56
2018-10-02T05:58:58.167Z,6.94
2018-10-02T05:59:58.181Z,6.94
2018-10-02T06:00:58.149Z,6.56
2018-10-02T06:01:58.188Z,6.66
2018-10-02T06:02:58.202Z,6.85
2018-10-02T06:03:58.262Z,6.85
2018-10-02T06:04:58.173Z,7.04
2018-10-02T06:05:58.151Z,7.13
2018-10-02T06:06:58.152Z,6.85
2018-10-02T06:07:58.156Z,6.75
2018-10-02T06:08:58.185Z,6.37
2018-10-02T06:09:58.195Z,6.46
2018-10-02T06:10:58.174Z,7.42
2018-10-02T06:11:58.152Z,7.99
2018-10-02T06:12:58.163Z,7.51
2018-10-02T06:13:58.162Z,7.23
2018-10-02T06:14:58.207Z,7.51
2018-10-02T06:15:58.164Z,6.75
2018-10-02T06:16:58.180Z,6.66
2018-10-02T06:17:58.203Z,6.75
2018-10-02T06:18:58.167Z,5.99
2018-10-02T06:19:58.183Z,6.27
2018-10-02T06:20:58.252Z,6.37
2018-10-02T06:21:58.154Z,5.80
2018-10-02T06:22:58.191Z,5.32
2018-10-02T06:23:58.171Z,4.94
2018-10-02T06:24:58.176Z,4.94
2018-10-02T06:25:58.180Z,4.94
2018-10-02T06:26:58.166Z,4.66
2018-10-02T06:27:58.158Z,5.13
2018-10-02T06:28:58.177Z,6.56
2018-10-02T06:29:58.176Z,8.27
2018-10-02T06:30:58.157Z,8.37
2018-10-02T06:31:58.154Z,7.51
2018-10-02T06:32:58.184Z,6.66
2018-10-02T06:33:58.188Z,8.37
2018-10-02T06:34:58.163Z,10.75
2018-10-02T06:35:58.167Z,9.61
2018-10-02T06:36:58.186Z,7.60
2018-10-02T06:37:58.353Z,6.75
2018-10-02T06:38:58.258Z,5.80
2018-10-02T06:39:58.194Z,5.99
2018-10-02T06:40:58.166Z,4.85
2018-10-02T06:41:58.409Z,4.18
2018-10-02T06:42:58.167Z,6.18
2018-10-02T06:43:58.191Z,5.71
2018-10-02T06:44:58.248Z,3.80
2018-10-02T06:45:58.183Z,2.56
2018-10-02T06:46:58.170Z,1.71
2018-10-02T06:47:58.170Z,0.76
2018-10-02T06:48:58.167Z,1.23
2018-10-02T06:49:58.151Z,1.33
2018-10-02T06:50:58.290Z,3.04
2018-10-02T06:51:59.026Z,3.33
2018-10-02T06:52:58.165Z,3.04
2018-10-02T06:53:58.154Z,1.52
2018-10-02T06:54:58.927Z,2.75
2018-10-02T06:55:58.161Z,3.04
2018-10-02T06:56:58.243Z,3.52
2018-10-02T06:57:58.170Z,3.42
2018-10-02T06:58:58.168Z,3.42
2018-10-02T06:59:58.161Z,3.33
2018-10-02T07:00:58.175Z,3.33
2018-10-02T07:01:58.188Z,3.52
2018-10-02T07:02:58.201Z,4.28
2018-10-02T07:03:58.149Z,4.66
2018-10-02T07:04:58.191Z,4.28
2018-10-02T07:05:58.199Z,3.80
2018-10-02T07:06:58.185Z,3.52
2018-10-02T07:07:58.178Z,4.57
2018-10-02T07:08:58.225Z,4.28
2018-10-02T07:09:58.172Z,5.61
2018-10-02T07:10:58.191Z,6.27
2018-10-02T07:11:58.194Z,6.94
2018-10-02T07:12:58.252Z,6.66
2018-10-02T07:13:58.392Z,7.13
2018-10-02T07:14:58.309Z,7.60
2018-10-02T07:15:58.333Z,7.13
2018-10-02T07:16:58.181Z,7.42
2018-10-02T07:17:58.805Z,7.32
2018-10-02T07:18:58.370Z,7.80
2018-10-02T07:19:58.416Z,9.22
2018-10-02T07:20:58.618Z,10.36
2018-10-02T07:21:58.325Z,9.99
2018-10-02T07:22:58.720Z,9.51
2018-10-02T07:23:58.935Z,7.99
2018-10-02T07:24:58.274Z,7.71
2018-10-02T07:25:58.165Z,9.61
2018-10-02T07:26:58.288Z,10.17
2018-10-02T07:27:58.496Z,9.70
2018-10-02T07:29:58.299Z,8.94
2018-10-02T07:30:58.334Z,7.89
2018-10-02T07:31:58.331Z,7.80
2018-10-02T07:32:58.251Z,7.23
2018-10-02T07:33:58.290Z,8.27
2018-10-02T07:34:59.253Z,7.89
2018-10-02T07:36:19.305Z,8.47
2018-10-02T07:36:58.471Z,9.42
2018-10-02T07:37:58.285Z,9.04
2018-10-02T07:39:05.019Z,9.61
2018-10-02T07:39:58.245Z,10.56
2018-10-02T07:40:58.316Z,11.51
2018-10-02T07:42:19.356Z,11.13
2018-10-02T07:42:58.307Z,14.28
2018-10-02T07:43:58.241Z,14.84
2018-10-02T07:44:58.372Z,13.32
2018-10-02T07:45:58.282Z,12.37
2018-10-02T07:46:58.249Z,16.85
2018-10-02T07:48:19.401Z,16.75
2018-10-02T07:48:58.254Z,17.99
2018-10-02T07:49:58.263Z,17.41
2018-10-02T07:50:58.342Z,17.03
2018-10-02T07:51:58.245Z,17.13
2018-10-02T07:52:58.312Z,18.65
2018-10-02T07:54:22.251Z,17.03
2018-10-02T07:55:26.849Z,16.08
2018-10-02T07:55:58.571Z,15.99
2018-10-02T07:56:58.391Z,15.32
2018-10-02T07:57:59.188Z,17.60
2018-10-02T07:59:19.271Z,19.03
2018-10-02T07:59:58.315Z,15.99
2018-10-02T08:00:58.296Z,16.56
2018-10-02T08:01:58.249Z,16.65
2018-10-02T08:02:58.335Z,18.65
2018-10-02T08:03:58.739Z,18.18
2018-10-02T08:05:19.515Z,16.56
2018-10-02T08:05:58.291Z,14.65
2018-10-02T08:06:58.600Z,15.32
2018-10-02T08:07:58.433Z,16.17
2018-10-02T08:08:58.326Z,19.22
2018-10-02T08:09:58.268Z,16.65
2018-10-02T08:11:21.105Z,15.61
2018-10-02T08:11:58.323Z,13.51
2018-10-02T08:12:58.429Z,11.71
2018-10-02T08:13:58.313Z,11.90
2018-10-02T08:14:58.312Z,13.23
2018-10-02T08:15:58.271Z,11.71
2018-10-02T08:17:19.287Z,11.71
2018-10-02T08:17:58.415Z,14.75
2018-10-02T08:18:58.262Z,12.18
2018-10-02T08:19:58.345Z,11.99
2018-10-02T08:20:58.460Z,11.71
2018-10-02T08:21:58.311Z,12.65
2018-10-02T08:23:20.994Z,13.23
2018-10-02T08:23:58.406Z,11.90
2018-10-02T08:24:59.228Z,16.75
2018-10-02T08:25:58.523Z,16.37
2018-10-02T08:26:58.678Z,15.70
2018-10-02T08:27:58.327Z,18.27
2018-10-02T08:29:19.380Z,17.89
2018-10-02T08:29:58.446Z,15.32
2018-10-02T08:30:58.331Z,15.99
2018-10-02T08:31:58.339Z,16.65
2018-10-02T08:33:00.296Z,15.23
2018-10-02T08:33:58.440Z,14.65
2018-10-02T08:35:20.138Z,14.37
2018-10-02T08:35:58.907Z,14.65
2018-10-02T08:36:58.297Z,15.42
2018-10-02T08:37:58.481Z,14.75
2018-10-02T08:39:00.397Z,15.32
2018-10-02T08:39:58.891Z,15.13
2018-10-02T08:41:19.804Z,13.13
2018-10-02T08:41:58.343Z,13.32
2018-10-02T08:42:58.360Z,12.28
2018-10-02T08:44:05.649Z,11.71
2018-10-02T08:44:58.682Z,11.99
2018-10-02T08:45:58.418Z,12.95
2018-10-02T08:47:19.413Z,13.51
2018-10-02T08:47:58.386Z,16.17
2018-10-02T08:48:58.349Z,16.85
2018-10-02T08:49:58.276Z,16.85
2018-10-02T08:50:58.401Z,15.03
2018-10-02T08:51:58.460Z,13.52
2018-10-02T08:53:20.047Z,11.52
2018-10-02T08:53:58.404Z,12.46
2018-10-02T08:54:58.774Z,12.19
2018-10-02T08:55:58.391Z,11.32
2018-10-02T08:56:59.210Z,10.28
2018-10-02T08:57:58.487Z,10.28
2018-10-02T08:59:19.385Z,9.42
2018-10-02T08:59:58.400Z,9.33
2018-10-02T09:00:58.459Z,8.56
2018-10-02T09:01:58.312Z,8.47
2018-10-02T09:02:58.374Z,7.04
2018-10-02T09:03:58.316Z,6.85
2018-10-02T09:05:19.289Z,6.56
2018-10-02T09:05:58.335Z,6.09
2018-10-02T09:07:01.837Z,6.28
2018-10-02T09:07:58.699Z,5.43
2018-10-02T09:08:58.707Z,5.71
2018-10-02T09:09:58.414Z,7.04
2018-10-02T09:11:19.329Z,6.76
2018-10-02T09:11:58.575Z,6.66
2018-10-02T09:12:58.983Z,6.85
2018-10-02T09:13:58.840Z,5.62
2018-10-02T09:14:58.354Z,5.43
2018-10-02T09:15:58.592Z,5.42
2018-10-02T09:17:19.298Z,4.85
2018-10-02T09:17:58.318Z,5.14
2018-10-02T09:18:58.424Z,3.52
2018-10-02T09:19:58.324Z,2.95
2018-10-02T09:20:58.347Z,3.61
2018-10-02T09:21:58.373Z,3.71
2018-10-02T09:23:19.296Z,3.52
2018-10-02T09:23:58.353Z,4.28
2018-10-02T09:24:58.408Z,4.38
2018-10-02T09:25:58.375Z,3.23
2018-10-02T09:26:58.396Z,2.28
2018-10-02T09:27:58.336Z,1.71
2018-10-02T09:29:19.336Z,0.85
2018-10-02T09:29:58.302Z,2.37
2018-10-02T09:30:58.671Z,2.66
2018-10-02T09:31:58.317Z,1.81
2018-10-02T09:32:58.305Z,1.81
2018-10-02T09:33:58.359Z,2.19
2018-10-02T09:35:19.292Z,1.62
2018-10-02T09:35:58.349Z,2.00
2018-10-02T09:36:58.414Z,2.09
2018-10-02T09:37:58.299Z,2.86
2018-10-02T09:38:58.399Z,3.33
2018-10-02T09:39:58.373Z,4.47
2018-10-02T09:41:19.406Z,4.85
2018-10-02T09:41:58.348Z,5.90
2018-10-02T09:42:58.372Z,6.57
2018-10-02T09:43:58.312Z,7.04
2018-10-02T09:44:58.937Z,7.90
2018-10-02T09:45:58.382Z,8.28
2018-10-02T09:47:19.307Z,9.42
2018-10-02T09:47:58.951Z,12.28
2018-10-02T09:48:58.397Z,13.23
2018-10-02T09:49:58.451Z,14.37
2018-10-02T09:50:58.282Z,14.76
2018-10-02T09:51:58.341Z,14.28
2018-10-02T09:53:19.298Z,14.76
2018-10-02T09:53:58.322Z,15.80
2018-10-02T09:54:59.122Z,14.37
2018-10-02T09:55:58.322Z,16.09
2018-10-02T09:56:58.337Z,16.56
2018-10-02T09:57:58.297Z,14.47
2018-10-02T09:59:19.385Z,14.28
2018-10-02T09:59:58.317Z,13.14
2018-10-02T10:00:58.342Z,12.28
2018-10-02T10:01:58.327Z,11.80
2018-10-02T10:02:58.335Z,12.28
2018-10-02T10:03:58.306Z,12.28
2018-10-02T10:05:19.359Z,13.23
2018-10-02T10:05:58.322Z,11.33
2018-10-02T10:06:58.323Z,10.47
2018-10-02T10:07:58.306Z,10.57
2018-10-02T10:08:58.307Z,11.43
2018-10-02T10:09:58.311Z,11.04
2018-10-02T10:11:19.325Z,9.61
2018-10-02T10:11:58.294Z,10.95
2018-10-02T10:12:58.305Z,8.47
2018-10-02T10:13:58.313Z,7.90
2018-10-02T10:14:58.296Z,8.18
2018-10-02T10:15:58.332Z,10.28
2018-10-02T10:17:19.425Z,10.00
2018-10-02T10:17:58.340Z,9.90
2018-10-02T10:18:58.388Z,9.33
2018-10-02T10:19:58.282Z,9.33
2018-10-02T10:20:58.358Z,9.43
2018-10-02T10:21:58.344Z,11.04
2018-10-02T10:23:19.300Z,13.33
2018-10-02T10:23:58.315Z,12.95
2018-10-02T10:24:58.307Z,11.33
2018-10-02T10:25:58.312Z,10.38
2018-10-02T10:26:58.346Z,9.90
2018-10-02T10:27:58.312Z,10.85
2018-10-02T10:29:19.375Z,11.99
2018-10-02T10:29:58.336Z,11.33
2018-10-02T10:30:58.293Z,11.71
2018-10-02T10:31:58.290Z,10.85
2018-10-02T10:32:58.311Z,9.71
2018-10-02T10:33:58.318Z,8.57
2018-10-02T10:35:19.308Z,7.71
2018-10-02T10:35:58.805Z,7.81
2018-10-02T10:36:58.325Z,9.24
2018-10-02T10:37:58.839Z,8.48
2018-10-02T10:38:58.382Z,7.33
2018-10-02T10:39:58.381Z,8.48
2018-10-02T10:41:19.374Z,8.00
2018-10-02T10:41:58.344Z,7.81
2018-10-02T10:42:58.326Z,6.95
2018-10-02T10:43:58.322Z,5.62
2018-10-02T10:44:58.331Z,4.19
2018-10-02T10:45:58.310Z,4.76
2018-10-02T10:47:19.319Z,3.81
2018-10-02T10:47:58.299Z,3.52
2018-10-02T10:48:58.319Z,2.38
2018-10-02T10:49:58.342Z,0.85
2018-10-02T10:50:58.297Z,0.00
2018-10-02T10:51:58.935Z,0.00
2018-10-02T10:53:19.330Z,0.00
2018-10-02T10:53:58.341Z,0.00
2018-10-02T10:54:58.295Z,0.00
2018-10-02T10:55:58.305Z,0.00
2018-10-02T10:56:58.320Z,0.00
2018-10-02T10:57:58.352Z,0.00
2018-10-02T10:59:19.319Z,0.00
2018-10-02T10:59:58.368Z,0.00
2018-10-02T11:00:58.338Z,0.00
2018-10-02T11:01:58.326Z,0.00
2018-10-02T11:02:58.388Z,0.00
2018-10-02T11:03:58.337Z,0.00
2018-10-02T11:05:20.081Z,0.00
2018-10-02T11:05:58.331Z,0.00
2018-10-02T11:06:58.357Z,0.00
2018-10-02T11:07:58.456Z,0.00
2018-10-02T11:08:58.359Z,0.00
2018-10-02T11:09:58.313Z,0.00
2018-10-02T11:11:22.172Z,0.00
2018-10-02T11:11:58.368Z,0.00
2018-10-02T11:12:58.346Z,0.00
2018-10-02T11:13:58.423Z,0.00
2018-10-02T11:14:58.376Z,0.00
2018-10-02T11:15:58.362Z,0.00
2018-10-02T11:17:19.443Z,0.00
2018-10-02T11:17:59.067Z,0.00
2018-10-02T11:18:58.778Z,0.00
2018-10-02T11:19:58.361Z,0.00
2018-10-02T11:20:58.405Z,0.00
2018-10-02T11:21:58.417Z,0.00
2018-10-02T11:23:19.418Z,0.00
2018-10-02T11:23:58.417Z,0.00
2018-10-02T11:24:58.435Z,0.00
2018-10-02T11:25:59.213Z,0.00
2018-10-02T11:26:58.432Z,0.00
2018-10-02T11:27:58.449Z,0.00
2018-10-02T11:29:19.363Z,0.00
2018-10-02T11:29:59.719Z,0.00
2018-10-02T11:30:58.359Z,0.00
2018-10-02T11:31:58.360Z,0.00
2018-10-02T11:33:01.983Z,0.00
2018-10-02T11:33:59.776Z,0.00
2018-10-02T11:35:19.366Z,0.00
2018-10-02T11:35:58.350Z,0.00
2018-10-02T11:36:58.354Z,0.00
2018-10-02T11:37:58.363Z,0.00
2018-10-02T11:38:59.705Z,0.00
2018-10-02T11:39:58.444Z,0.00
2018-10-02T11:41:19.360Z,0.00
2018-10-02T11:41:58.807Z,0.00
2018-10-02T11:42:58.400Z,0.00
2018-10-02T11:43:58.457Z,0.00
2018-10-02T11:44:58.603Z,0.00
2018-10-02T11:45:58.407Z,0.00
2018-10-02T11:47:19.407Z,0.00
2018-10-02T11:47:59.013Z,0.00
2018-10-02T11:48:58.423Z,0.00
2018-10-02T11:49:59.284Z,0.00
2018-10-02T11:50:58.552Z,0.00
2018-10-02T11:51:59.322Z,0.00
2018-10-02T11:53:19.413Z,0.00
2018-10-02T11:53:58.353Z,0.00
2018-10-02T11:54:58.367Z,0.00
2018-10-02T11:55:58.369Z,0.00
2018-10-02T11:56:58.425Z,0.00
2018-10-02T11:57:58.399Z,0.00
2018-10-02T11:59:19.403Z,0.00
2018-10-02T11:59:58.368Z,0.00
2018-10-02T12:00:58.566Z,0.00
2018-10-02T12:01:58.368Z,0.00
2018-10-02T12:02:58.388Z,0.00
2018-10-02T12:03:58.387Z,0.00
2018-10-02T12:05:19.410Z,0.00
2018-10-02T12:05:58.371Z,0.00
2018-10-02T12:06:58.369Z,0.00
2018-10-02T12:07:58.395Z,0.00
2018-10-02T12:08:58.578Z,0.00
2018-10-02T12:09:58.798Z,0.00
2018-10-02T12:11:19.422Z,0.00
2018-10-02T12:11:58.380Z,0.00
2018-10-02T12:12:58.443Z,0.00
2018-10-02T12:13:58.440Z,0.00
2018-10-02T12:14:58.500Z,0.00
2018-10-02T12:15:58.394Z,0.00
2018-10-02T12:17:19.406Z,0.00
2018-10-02T12:17:58.403Z,0.00
2018-10-02T12:18:59.916Z,0.00
2018-10-02T12:19:58.494Z,0.00
2018-10-02T12:21:00.293Z,0.00
2018-10-02T12:21:58.456Z,0.00
2018-10-02T12:23:19.498Z,0.00
2018-10-02T12:23:58.466Z,0.00
2018-10-02T12:24:58.457Z,0.00
2018-10-02T12:26:01.270Z,0.00
2018-10-02T12:26:58.660Z,0.00
2018-10-02T12:27:58.390Z,0.00
2018-10-02T12:29:19.420Z,0.00
2018-10-02T12:29:58.530Z,0.00
2018-10-02T12:30:58.397Z,0.00
2018-10-02T12:31:58.438Z,0.00
2018-10-02T12:32:58.468Z,0.00
2018-10-02T12:33:58.432Z,0.00
2018-10-02T12:35:19.522Z,0.00
2018-10-02T12:35:58.582Z,0.00
2018-10-02T12:36:58.481Z,0.00
2018-10-02T12:37:58.428Z,0.00
2018-10-02T12:38:58.521Z,0.00
2018-10-02T12:39:58.457Z,0.00
2018-10-02T12:41:19.443Z,0.00
2018-10-02T12:41:58.474Z,0.00
2018-10-02T12:42:58.531Z,0.00
2018-10-02T12:43:58.413Z,0.00
2018-10-02T12:44:59.161Z,0.00
2018-10-02T12:45:58.447Z,0.00
2018-10-02T12:47:19.443Z,0.00
2018-10-02T12:47:58.435Z,0.00
2018-10-02T12:48:59.140Z,0.00
2018-10-02T12:49:58.619Z,0.00
2018-10-02T12:50:58.964Z,0.00
2018-10-02T12:51:58.479Z,0.00
2018-10-02T12:53:19.515Z,0.19
2018-10-02T12:53:58.528Z,0.00
2018-10-02T12:54:58.531Z,0.00
2018-10-02T12:55:58.421Z,0.00
2018-10-02T12:56:58.457Z,0.00
2018-10-02T12:57:58.434Z,0.00
2018-10-02T12:59:19.496Z,0.00
2018-10-02T12:59:58.421Z,0.00
2018-10-02T13:00:58.449Z,0.00
2018-10-02T13:01:58.438Z,0.00
2018-10-02T13:02:58.448Z,1.24
2018-10-02T13:03:58.476Z,2.39
2018-10-02T13:05:19.597Z,2.67